createdAt,value
2019-01-17T00:01:49.033Z,6.70
2019-01-17T00:04:35.510Z,6.60
2019-01-17T00:07:08.516Z,6.43
2019-01-17T00:09:41.359Z,5.83
2019-01-17T00:12:11.457Z,6.63
2019-01-17T00:14:58.368Z,6.53
2019-01-17T00:17:43.566Z,6.37
2019-01-17T00:20:16.507Z,5.30
2019-01-17T00:22:46.574Z,5.93
2019-01-17T00:25:34.836Z,5.77
2019-01-17T00:28:07.510Z,5.80
2019-01-17T00:30:37.611Z,5.93
2019-01-17T00:33:22.674Z,5.47
2019-01-17T00:35:55.265Z,5.43
2019-01-17T00:38:28.389Z,5.83
2019-01-17T00:40:58.443Z,6.20
2019-01-17T00:43:37.709Z,6.60
2019-01-17T00:46:07.730Z,5.63
2019-01-17T00:48:43.753Z,6.70
2019-01-17T00:51:16.437Z,5.93
2019-01-17T00:53:46.486Z,6.30
2019-01-17T00:56:34.956Z,7.17
2019-01-17T00:59:11.635Z,6.73
2019-01-17T01:01:44.317Z,6.63
2019-01-17T01:04:23.260Z,6.70
2019-01-17T01:07:02.453Z,7.43
2019-01-17T01:09:35.507Z,7.50
2019-01-17T01:12:05.730Z,7.63
2019-01-17T01:14:35.765Z,8.10
2019-01-17T01:17:06.529Z,7.77
2019-01-17T01:19:39.259Z,7.50
2019-01-17T01:22:24.106Z,7.67
2019-01-17T01:24:54.281Z,8.10
2019-01-17T01:27:30.106Z,7.50
2019-01-17T01:30:00.234Z,7.77
2019-01-17T01:32:33.129Z,7.97
2019-01-17T01:35:06.130Z,7.73
2019-01-17T01:37:42.209Z,9.60
2019-01-17T01:40:15.669Z,7.10
2019-01-17T01:42:47.101Z,7.97
2019-01-17T01:45:26.452Z,7.67
2019-01-17T01:48:05.434Z,7.10
2019-01-17T01:50:38.278Z,7.07
2019-01-17T01:53:06.039Z,7.80
2019-01-17T01:55:34.446Z,6.50
2019-01-17T01:58:02.939Z,6.33
2019-01-17T02:00:31.547Z,6.27
2019-01-17T02:03:00.052Z,5.23
2019-01-17T02:05:28.623Z,6.10
2019-01-17T02:07:57.155Z,5.63
2019-01-17T02:10:25.718Z,5.77
2019-01-17T02:12:54.246Z,5.80
2019-01-17T02:15:22.710Z,5.13
2019-01-17T02:17:51.211Z,4.83
2019-01-17T02:20:19.950Z,5.10
2019-01-17T02:22:48.478Z,5.87
2019-01-17T02:25:16.919Z,6.40
2019-01-17T02:27:45.473Z,7.10
2019-01-17T02:30:13.929Z,6.40
2019-01-17T02:32:42.410Z,7.10
2019-01-17T02:35:10.928Z,7.50
2019-01-17T02:37:39.345Z,7.27
2019-01-17T02:40:10.354Z,7.00
2019-01-17T02:42:38.852Z,7.00
2019-01-17T02:45:10.284Z,6.67
2019-01-17T02:47:38.768Z,6.53
2019-01-17T02:50:09.384Z,6.77
2019-01-17T02:52:37.864Z,6.07
2019-01-17T02:55:09.318Z,6.00
2019-01-17T02:57:37.842Z,6.73
2019-01-17T03:00:09.597Z,6.20
2019-01-17T03:02:38.103Z,6.60
2019-01-17T03:05:06.691Z,6.30
2019-01-17T03:07:35.061Z,6.40
2019-01-17T03:10:04.160Z,6.30
2019-01-17T03:12:32.660Z,6.30
2019-01-17T03:15:01.187Z,6.50
2019-01-17T03:17:29.734Z,6.73
2019-01-17T03:19:58.121Z,6.60
2019-01-17T03:22:26.671Z,6.43
2019-01-17T03:24:55.132Z,6.60
2019-01-17T03:27:23.538Z,6.57
2019-01-17T03:29:52.058Z,7.27
2019-01-17T03:32:20.483Z,6.67
2019-01-17T03:34:49.031Z,6.23
2019-01-17T03:37:17.512Z,6.80
2019-01-17T03:39:45.966Z,5.97
2019-01-17T03:42:14.380Z,6.53
2019-01-17T03:44:42.777Z,6.13
2019-01-17T03:47:11.268Z,5.73
2019-01-17T03:49:39.914Z,5.47
2019-01-17T03:52:08.361Z,6.33
2019-01-17T03:54:36.915Z,5.50
2019-01-17T03:57:05.412Z,5.77
2019-01-17T03:59:33.793Z,5.30
2019-01-17T04:02:02.322Z,5.50
2019-01-17T04:04:36.523Z,4.83
2019-01-17T04:07:07.345Z,5.53
2019-01-17T04:09:35.724Z,5.30
2019-01-17T04:12:04.127Z,5.03
2019-01-17T04:14:32.510Z,4.90
2019-01-17T04:17:00.883Z,4.67
2019-01-17T04:19:29.292Z,5.03
2019-01-17T04:21:57.700Z,4.13
2019-01-17T04:24:26.091Z,4.43
2019-01-17T04:26:55.358Z,4.10
2019-01-17T04:29:23.773Z,4.47
2019-01-17T04:31:52.151Z,4.20
2019-01-17T04:34:20.558Z,3.90
2019-01-17T04:36:48.940Z,3.50
2019-01-17T04:39:17.368Z,3.53
2019-01-17T04:41:45.732Z,3.60
2019-01-17T04:44:14.146Z,3.50
2019-01-17T04:46:42.520Z,3.60
2019-01-17T04:49:10.930Z,3.60
2019-01-17T04:51:39.309Z,3.43
2019-01-17T04:54:07.839Z,3.30
2019-01-17T04:56:36.240Z,3.90
2019-01-17T04:59:04.681Z,3.53
2019-01-17T05:01:33.052Z,3.33
2019-01-17T05:04:01.462Z,3.50
2019-01-17T05:06:29.862Z,3.50
2019-01-17T05:08:58.248Z,3.47
2019-01-17T05:11:26.650Z,3.70
2019-01-17T05:13:55.030Z,3.27
2019-01-17T05:16:23.425Z,3.10
2019-01-17T05:18:51.836Z,3.53
2019-01-17T05:21:20.213Z,3.57
2019-01-17T05:23:48.659Z,3.60
2019-01-17T05:26:17.037Z,3.90
2019-01-17T05:28:45.448Z,3.53
2019-01-17T05:31:13.837Z,3.63
2019-01-17T05:33:42.219Z,3.70
2019-01-17T05:36:10.629Z,3.67
2019-01-17T05:38:39.041Z,4.20
2019-01-17T05:41:07.413Z,4.33
2019-01-17T05:43:35.823Z,4.17
2019-01-17T05:46:04.370Z,4.03
2019-01-17T05:48:32.770Z,4.00
2019-01-17T05:51:01.154Z,4.03
2019-01-17T05:53:29.546Z,4.67
2019-01-17T05:55:57.924Z,4.90
2019-01-17T05:58:26.329Z,5.13
2019-01-17T06:00:54.692Z,4.77
2019-01-17T06:03:23.073Z,4.70
2019-01-17T06:05:51.506Z,4.70
2019-01-17T06:08:19.841Z,4.57
2019-01-17T06:10:48.242Z,4.93
2019-01-17T06:13:16.780Z,5.00
2019-01-17T06:15:45.348Z,5.20
2019-01-17T06:18:13.785Z,5.37
2019-01-17T06:20:42.192Z,4.93
2019-01-17T06:23:10.566Z,5.33
2019-01-17T06:25:38.982Z,4.60
2019-01-17T06:28:07.447Z,5.30
2019-01-17T06:30:35.861Z,5.30
2019-01-17T06:33:05.763Z,4.60
2019-01-17T06:35:34.122Z,4.80
2019-01-17T06:38:02.530Z,5.47
2019-01-17T06:40:30.921Z,4.77
2019-01-17T06:42:59.325Z,5.27
2019-01-17T06:45:27.717Z,6.43
2019-01-17T06:47:56.135Z,6.07
2019-01-17T06:50:24.558Z,5.80
2019-01-17T06:52:53.782Z,5.93
2019-01-17T06:55:22.680Z,6.30
2019-01-17T06:57:51.125Z,5.70
2019-01-17T07:00:19.801Z,6.17
2019-01-17T07:02:48.173Z,5.90
2019-01-17T07:05:16.677Z,5.90
2019-01-17T07:07:45.147Z,6.23
2019-01-17T07:10:15.880Z,6.20
2019-01-17T07:12:44.317Z,6.27
2019-01-17T07:15:12.726Z,6.27
2019-01-17T07:17:41.133Z,6.53
2019-01-17T07:20:14.911Z,6.43
2019-01-17T07:22:43.373Z,7.40
2019-01-17T07:25:12.187Z,6.50
2019-01-17T07:27:40.606Z,7.20
2019-01-17T07:30:12.416Z,7.13
2019-01-17T07:32:41.125Z,6.93
2019-01-17T07:35:16.552Z,7.33
2019-01-17T07:37:46.299Z,6.87
2019-01-17T07:40:15.861Z,8.17
2019-01-17T07:42:47.939Z,7.60
2019-01-17T07:45:22.361Z,7.17
2019-01-17T07:47:51.627Z,7.30
2019-01-17T07:50:27.808Z,7.53
2019-01-17T07:52:59.631Z,7.23
2019-01-17T07:55:28.106Z,7.27
2019-01-17T07:57:56.500Z,7.47
2019-01-17T08:00:24.914Z,6.13
2019-01-17T08:02:53.284Z,7.03
2019-01-17T08:05:21.699Z,6.57
2019-01-17T08:07:50.085Z,6.80
2019-01-17T08:10:19.816Z,7.77
2019-01-17T08:12:48.195Z,7.30
2019-01-17T08:15:16.776Z,6.70
2019-01-17T08:17:45.149Z,5.97
2019-01-17T08:20:18.600Z,6.10
2019-01-17T08:22:46.995Z,7.07
2019-01-17T08:25:15.475Z,6.53
2019-01-17T08:27:44.562Z,6.10
2019-01-17T08:30:18.849Z,5.97
2019-01-17T08:32:47.231Z,6.20
2019-01-17T08:35:16.467Z,5.73
2019-01-17T08:37:44.843Z,5.97
2019-01-17T08:40:25.124Z,5.83
2019-01-17T08:42:53.511Z,6.33
2019-01-17T08:45:21.914Z,5.40
2019-01-17T08:47:50.296Z,5.67
2019-01-17T08:50:18.686Z,5.70
2019-01-17T08:52:47.100Z,5.37
2019-01-17T08:55:15.477Z,5.53
2019-01-17T08:57:43.885Z,5.33
2019-01-17T09:00:15.317Z,5.17
2019-01-17T09:02:43.725Z,5.30
2019-01-17T09:05:12.099Z,4.97
2019-01-17T09:07:40.501Z,5.30
2019-01-17T09:10:12.518Z,4.53
2019-01-17T09:12:40.918Z,4.70
2019-01-17T09:15:12.624Z,3.73
2019-01-17T09:17:41.034Z,4.03
2019-01-17T09:20:12.853Z,4.00
2019-01-17T09:22:41.269Z,4.27
2019-01-17T09:25:11.973Z,3.77
2019-01-17T09:27:40.385Z,3.80
2019-01-17T09:30:14.673Z,3.67
2019-01-17T09:32:43.137Z,3.90
2019-01-17T09:35:13.344Z,3.53
2019-01-17T09:37:41.749Z,3.37
2019-01-17T09:40:13.205Z,3.80
2019-01-17T09:42:42.021Z,3.70
2019-01-17T09:45:10.521Z,3.90
2019-01-17T09:47:38.931Z,3.80
2019-01-17T09:50:21.626Z,3.20
2019-01-17T09:52:50.177Z,3.37
2019-01-17T09:55:18.558Z,3.30
2019-01-17T09:57:46.965Z,3.03
2019-01-17T10:00:17.977Z,3.07
2019-01-17T10:02:46.386Z,3.23
2019-01-17T10:05:14.769Z,3.10
2019-01-17T10:07:43.169Z,2.93
2019-01-17T10:10:14.380Z,3.07
2019-01-17T10:12:42.804Z,3.10
2019-01-17T10:15:14.810Z,3.40
2019-01-17T10:18:04.262Z,3.10
2019-01-17T10:20:54.087Z,3.20
2019-01-17T10:23:54.388Z,2.80
2019-01-17T10:26:44.038Z,3.40
2019-01-17T10:29:24.611Z,3.00
2019-01-17T10:32:05.134Z,3.90
2019-01-17T10:34:36.816Z,3.37
2019-01-17T10:37:14.082Z,3.33
2019-01-17T10:39:48.524Z,3.03
2019-01-17T10:42:39.770Z,3.50
2019-01-17T10:45:32.137Z,3.70
2019-01-17T10:48:18.777Z,3.60
2019-01-17T10:51:12.837Z,3.80
2019-01-17T10:54:06.810Z,3.47
2019-01-17T10:56:50.266Z,2.97
2019-01-17T10:59:38.353Z,2.13
2019-01-17T11:02:12.992Z,1.93
2019-01-17T11:05:14.658Z,1.83
2019-01-17T11:08:05.772Z,1.80
2019-01-17T11:10:40.249Z,1.87
2019-01-17T11:13:23.702Z,1.80
2019-01-17T11:16:03.882Z,1.97
2019-01-17T11:18:56.369Z,2.20
2019-01-17T11:21:46.134Z,2.53
2019-01-17T11:24:26.818Z,2.63
2019-01-17T11:27:10.488Z,3.17
2019-01-17T11:29:58.893Z,2.60
2019-01-17T11:32:36.045Z,2.70
2019-01-17T11:35:10.876Z,2.30
2019-01-17T11:37:51.398Z,2.53
2019-01-17T11:40:45.545Z,2.00
2019-01-17T11:43:26.029Z,2.00
2019-01-17T11:46:00.445Z,2.00
2019-01-17T11:49:05.535Z,1.90
2019-01-17T11:51:39.933Z,2.10
2019-01-17T11:54:29.740Z,1.90
2019-01-17T11:57:04.382Z,2.20
2019-01-17T11:59:41.904Z,1.70
2019-01-17T12:02:22.454Z,2.10
2019-01-17T12:04:49.973Z,1.80
2019-01-17T12:07:18.424Z,1.70
2019-01-17T12:09:46.831Z,1.50
2019-01-17T12:12:16.847Z,1.60
2019-01-17T12:14:45.434Z,1.40
2019-01-17T12:17:13.807Z,1.47
2019-01-17T12:19:42.223Z,1.13
2019-01-17T12:22:10.599Z,1.10
2019-01-17T12:24:39.000Z,1.27
2019-01-17T12:27:07.392Z,1.20
2019-01-17T12:29:35.939Z,0.90
2019-01-17T12:32:04.320Z,0.93
2019-01-17T12:34:32.983Z,1.10
2019-01-17T12:37:01.345Z,0.90
2019-01-17T12:39:29.763Z,1.30
2019-01-17T12:41:58.177Z,1.00
2019-01-17T12:44:26.571Z,1.00
2019-01-17T12:46:54.973Z,1.20
2019-01-17T12:49:24.357Z,1.10
2019-01-17T12:51:52.782Z,1.30
2019-01-17T12:54:21.159Z,1.30
2019-01-17T12:56:54.007Z,1.43
2019-01-17T12:59:19.908Z,1.43
2019-01-17T13:01:48.415Z,1.40
2019-01-17T13:04:16.821Z,1.30
2019-01-17T13:06:45.194Z,1.50
2019-01-17T13:09:13.611Z,1.30
2019-01-17T13:11:42.015Z,1.13
2019-01-17T13:14:10.394Z,1.20
2019-01-17T13:16:38.877Z,1.30
2019-01-17T13:19:07.249Z,1.13
2019-01-17T13:21:35.656Z,1.10
2019-01-17T13:24:04.131Z,1.00
2019-01-17T13:26:41.487Z,0.70
2019-01-17T13:29:10.006Z,0.90
2019-01-17T13:31:38.491Z,1.00
2019-01-17T13:34:06.883Z,1.03
2019-01-17T13:36:40.285Z,1.00
2019-01-17T13:39:06.852Z,1.17
2019-01-17T13:41:35.299Z,1.10
2019-01-17T13:44:03.784Z,1.37
2019-01-17T13:46:32.227Z,1.10
2019-01-17T13:49:00.707Z,0.90
2019-01-17T13:51:29.092Z,1.07
2019-01-17T13:53:57.498Z,0.80
2019-01-17T13:56:25.956Z,0.90
2019-01-17T13:58:54.351Z,0.77
2019-01-17T14:01:22.819Z,0.70
2019-01-17T14:03:51.253Z,0.80
2019-01-17T14:06:19.651Z,0.80
2019-01-17T14:08:48.060Z,1.03
2019-01-17T14:11:16.733Z,0.80
2019-01-17T14:13:45.372Z,0.80
2019-01-17T14:16:13.938Z,0.70
2019-01-17T14:18:42.323Z,0.80
2019-01-17T14:21:10.735Z,0.90
2019-01-17T14:23:39.187Z,0.77
2019-01-17T14:26:07.678Z,0.93
2019-01-17T14:28:36.151Z,0.80
2019-01-17T14:31:04.700Z,1.10
2019-01-17T14:33:33.114Z,1.10
2019-01-17T14:36:01.547Z,1.10
2019-01-17T14:38:30.074Z,1.03
2019-01-17T14:40:58.534Z,0.80
2019-01-17T14:43:27.046Z,0.70
2019-01-17T14:45:55.515Z,0.80
2019-01-17T14:48:24.175Z,0.80
2019-01-17T14:50:52.661Z,0.80
2019-01-17T14:53:21.167Z,0.90
2019-01-17T14:55:49.704Z,1.00
2019-01-17T14:58:22.565Z,0.80
2019-01-17T15:00:52.891Z,0.90
2019-01-17T15:03:21.785Z,0.80
2019-01-17T15:05:53.156Z,1.10
2019-01-17T15:08:22.996Z,0.77
2019-01-17T15:10:57.268Z,0.77
2019-01-17T15:13:27.693Z,0.87
2019-01-17T15:15:57.099Z,0.97
2019-01-17T15:18:28.805Z,0.90
2019-01-17T15:20:57.661Z,0.90
2019-01-17T15:23:26.096Z,1.03
2019-01-17T15:25:54.769Z,0.83
2019-01-17T15:28:23.160Z,0.90
2019-01-17T15:30:52.429Z,1.10
2019-01-17T15:33:21.108Z,0.90
2019-01-17T15:35:49.584Z,1.00
2019-01-17T15:38:18.253Z,0.93
2019-01-17T15:40:46.735Z,1.03
2019-01-17T15:43:15.311Z,1.00
2019-01-17T15:45:46.636Z,0.83
2019-01-17T15:48:15.659Z,0.93
2019-01-17T15:50:44.738Z,0.70
2019-01-17T15:56:06.056Z,0.90
2019-01-17T15:58:49.096Z,1.30
2019-01-17T16:01:22.110Z,0.93
2019-01-17T16:03:52.454Z,0.90
2019-01-17T16:06:24.206Z,1.00
2019-01-17T16:08:54.357Z,1.33
2019-01-17T16:11:26.101Z,1.00
2019-01-17T16:13:55.014Z,0.90
2019-01-17T16:16:29.522Z,1.33
2019-01-17T16:19:03.515Z,1.27
2019-01-17T16:21:48.082Z,1.20
2019-01-17T16:27:20.410Z,1.20
2019-01-17T16:32:38.445Z,1.27
2019-01-17T16:35:09.471Z,0.80
2019-01-17T16:37:38.704Z,1.00
2019-01-17T16:40:10.802Z,1.07
2019-01-17T16:42:41.796Z,0.90
2019-01-17T16:45:14.135Z,1.10
2019-01-17T16:47:43.202Z,1.00
2019-01-17T16:50:14.839Z,1.30
2019-01-17T16:52:43.873Z,0.73
2019-01-17T16:55:13.646Z,1.50
2019-01-17T16:57:48.532Z,1.20
2019-01-17T17:00:27.248Z,1.07
2019-01-17T17:02:56.552Z,1.00
2019-01-17T17:05:25.923Z,0.70
2019-01-17T17:07:55.200Z,0.70
2019-01-17T17:10:24.883Z,0.80
2019-01-17T17:12:54.202Z,0.60
2019-01-17T17:15:25.023Z,0.60
2019-01-17T17:17:54.551Z,0.90
2019-01-17T17:20:25.163Z,1.10
2019-01-17T17:22:54.534Z,1.20
2019-01-17T17:25:23.933Z,1.40
2019-01-17T17:27:55.727Z,1.07
2019-01-17T17:30:26.315Z,1.33
2019-01-17T17:32:55.455Z,1.30
2019-01-17T17:35:24.951Z,1.30
2019-01-17T17:38:12.808Z,1.63
2019-01-17T17:40:38.127Z,1.27
2019-01-17T17:43:04.749Z,1.20
2019-01-17T17:45:34.985Z,1.40
2019-01-17T17:48:07.236Z,1.30
2019-01-17T17:50:35.737Z,1.30
2019-01-17T17:53:04.225Z,1.30
2019-01-17T17:55:32.697Z,1.43
2019-01-17T17:58:02.250Z,1.10
2019-01-17T18:00:38.729Z,1.30
2019-01-17T18:03:07.370Z,1.20
2019-01-17T18:05:35.935Z,1.20
2019-01-17T18:08:04.305Z,2.50
2019-01-17T18:10:33.844Z,1.80
2019-01-17T18:13:03.881Z,1.60
2019-01-17T18:15:32.880Z,1.60
2019-01-17T18:18:02.231Z,2.00
2019-01-17T18:20:31.761Z,2.00
2019-01-17T18:23:00.652Z,2.07
2019-01-17T18:25:29.589Z,1.90
2019-01-17T18:27:59.608Z,2.40
2019-01-17T18:30:28.663Z,2.73
2019-01-17T18:32:57.550Z,2.80
2019-01-17T18:35:27.334Z,2.90
2019-01-17T18:37:56.131Z,2.60
2019-01-17T18:40:25.657Z,2.57
2019-01-17T18:42:54.046Z,2.83
2019-01-17T18:45:24.498Z,2.40
2019-01-17T18:47:52.886Z,2.60
2019-01-17T18:50:24.412Z,2.30
2019-01-17T18:52:52.875Z,2.30
2019-01-17T18:55:22.928Z,2.80
2019-01-17T18:57:54.660Z,2.33
2019-01-17T19:00:31.414Z,2.33
2019-01-17T19:03:01.826Z,1.60
2019-01-17T19:05:32.066Z,1.13
2019-01-17T19:08:01.657Z,1.10
2019-01-17T19:10:31.164Z,1.37
2019-01-17T19:12:59.642Z,1.60
2019-01-17T19:15:31.994Z,1.50
2019-01-17T19:18:02.839Z,1.70
2019-01-17T19:20:32.768Z,1.70
2019-01-17T19:23:03.445Z,1.80
2019-01-17T19:25:36.023Z,2.33
2019-01-17T19:28:08.065Z,2.53
2019-01-17T19:30:38.423Z,2.30
2019-01-17T19:33:08.671Z,2.47
2019-01-17T19:35:38.405Z,2.40
2019-01-17T19:38:10.021Z,2.13
2019-01-17T19:40:41.731Z,2.07
2019-01-17T19:43:16.766Z,2.77
2019-01-17T19:45:47.869Z,2.60
2019-01-17T19:48:19.243Z,2.40
2019-01-17T19:50:49.824Z,2.40
2019-01-17T19:53:19.575Z,2.40
2019-01-17T19:55:49.102Z,2.90
2019-01-17T19:58:18.455Z,4.07
2019-01-17T20:00:48.635Z,4.40
2019-01-17T20:03:17.550Z,3.13
2019-01-17T20:05:46.298Z,3.20
2019-01-17T20:08:15.028Z,2.97
2019-01-17T20:10:44.278Z,2.87
2019-01-17T20:13:12.764Z,3.13
2019-01-17T20:15:41.122Z,2.73
2019-01-17T20:18:15.639Z,2.90
2019-01-17T20:20:44.410Z,3.00
2019-01-17T20:23:12.817Z,3.20
2019-01-17T20:25:41.508Z,3.07
2019-01-17T20:28:10.016Z,3.53
2019-01-17T20:30:38.526Z,3.87
2019-01-17T20:33:09.802Z,4.30
2019-01-17T20:35:45.925Z,3.83
2019-01-17T20:38:15.639Z,3.40
2019-01-17T20:40:46.137Z,3.53
2019-01-17T20:43:15.006Z,3.40
2019-01-17T20:45:43.537Z,3.30
2019-01-17T20:48:12.338Z,3.73
2019-01-17T20:50:41.032Z,3.20
2019-01-17T20:53:09.408Z,2.70
2019-01-17T20:55:37.852Z,2.40
2019-01-17T20:58:06.653Z,2.90
2019-01-17T21:00:40.845Z,2.50
2019-01-17T21:03:11.181Z,2.30
2019-01-17T21:05:39.700Z,2.40
2019-01-17T21:08:08.313Z,2.50
2019-01-17T21:10:36.872Z,2.80
2019-01-17T21:13:05.395Z,2.40
2019-01-17T21:15:33.887Z,2.30
2019-01-17T21:18:03.450Z,2.10
2019-01-17T21:20:31.861Z,2.40
2019-01-17T21:23:00.247Z,2.07
2019-01-17T21:25:28.655Z,2.60
2019-01-17T21:27:57.041Z,2.10
2019-01-17T21:30:27.662Z,2.30
2019-01-17T21:32:56.028Z,2.30
2019-01-17T21:35:24.435Z,2.20
2019-01-17T21:37:52.941Z,2.70
2019-01-17T21:40:23.075Z,2.10
2019-01-17T21:42:51.457Z,2.70
2019-01-17T21:45:19.862Z,2.70
2019-01-17T21:47:48.263Z,3.03
2019-01-17T21:50:25.568Z,2.90
2019-01-17T21:52:54.785Z,3.50
2019-01-17T21:55:23.433Z,2.40
2019-01-17T21:57:52.351Z,2.40
2019-01-17T22:00:29.152Z,2.30
2019-01-17T22:02:57.531Z,2.10
2019-01-17T22:05:25.942Z,2.53
2019-01-17T22:07:55.094Z,2.50
2019-01-17T22:10:24.513Z,2.23
2019-01-17T22:12:52.893Z,2.43
2019-01-17T22:15:25.798Z,2.60
2019-01-17T22:17:54.680Z,2.53
2019-01-17T22:20:23.569Z,2.80
2019-01-17T22:22:52.045Z,2.70
2019-01-17T22:25:21.392Z,2.80
2019-01-17T22:27:51.930Z,3.27
2019-01-17T22:30:25.315Z,3.27
2019-01-17T22:32:53.829Z,2.80
2019-01-17T22:35:22.453Z,3.07
2019-01-17T22:37:50.974Z,3.07
2019-01-17T22:40:19.943Z,3.83
2019-01-17T22:42:48.443Z,3.60
2019-01-17T22:45:23.157Z,3.03
2019-01-17T22:47:52.273Z,3.20
2019-01-17T22:50:20.667Z,3.13
2019-01-17T22:52:50.477Z,3.20
2019-01-17T22:55:19.035Z,3.73
2019-01-17T22:57:47.664Z,3.10
2019-01-17T23:00:50.356Z,2.90
2019-01-17T23:03:22.097Z,2.80
2019-01-17T23:05:51.008Z,2.70
2019-01-17T23:08:19.619Z,2.50
2019-01-17T23:10:48.153Z,2.80
2019-01-17T23:13:16.609Z,2.70
2019-01-17T23:15:46.690Z,3.23
2019-01-17T23:18:15.332Z,2.73
2019-01-17T23:20:43.707Z,2.70
2019-01-17T23:23:12.360Z,2.40
2019-01-17T23:25:40.871Z,2.73
2019-01-17T23:28:09.301Z,3.10
2019-01-17T23:30:37.956Z,2.60
2019-01-17T23:33:06.463Z,2.60
2019-01-17T23:35:34.928Z,2.90
2019-01-17T23:38:03.703Z,2.60
2019-01-17T23:40:32.166Z,2.90
2019-01-17T23:43:01.990Z,2.70
2019-01-17T23:45:30.542Z,2.70
2019-01-17T23:47:59.292Z,2.60
2019-01-17T23:50:27.772Z,3.00
2019-01-17T23:52:56.259Z,3.10
2019-01-17T23:55:24.741Z,2.50
2019-01-17T23:57:53.258Z,2.73
